createdAt,value
2022-12-25T00:00:40.752Z,20.63
2022-12-25T00:03:08.606Z,22.73
2022-12-25T00:05:38.299Z,19.38
2022-12-25T00:08:05.793Z,19.83
2022-12-25T00:10:33.210Z,19.45
2022-12-25T00:13:00.478Z,18.38
2022-12-25T00:15:27.750Z,25.27
2022-12-25T00:17:57.839Z,18.55
2022-12-25T00:20:25.085Z,17.88
2022-12-25T00:22:52.365Z,25.60
2022-12-25T00:25:19.698Z,20.45
2022-12-25T00:27:47.031Z,21.23
2022-12-25T00:30:14.358Z,26.25
2022-12-25T00:32:42.247Z,20.05
2022-12-25T00:35:09.702Z,16.63
2022-12-25T00:37:36.920Z,21.35
2022-12-25T00:40:04.220Z,18.75
2022-12-25T00:42:31.558Z,19.27
2022-12-25T00:44:58.852Z,25.55
2022-12-25T00:47:26.175Z,14.88
2022-12-25T00:49:53.520Z,23.50
2022-12-25T00:52:20.843Z,17.95
2022-12-25T00:54:48.142Z,16.60
2022-12-25T00:57:15.445Z,23.17
2022-12-25T00:59:42.740Z,16.45
2022-12-25T01:02:25.364Z,21.65
2022-12-25T01:04:54.524Z,17.30
2022-12-25T01:07:22.406Z,21.30
2022-12-25T01:10:08.446Z,27.33
2022-12-25T01:12:39.297Z,22.05
2022-12-25T01:15:07.975Z,17.05
2022-12-25T01:17:35.273Z,17.27
2022-12-25T01:20:02.931Z,20.33
2022-12-25T01:22:30.125Z,17.42
2022-12-25T01:24:57.359Z,17.77
2022-12-25T01:27:26.829Z,21.55
2022-12-25T01:29:54.574Z,21.92
2022-12-25T01:32:21.805Z,19.48
2022-12-25T01:34:55.478Z,18.45
2022-12-25T01:37:24.656Z,18.02
2022-12-25T01:39:52.021Z,20.33
2022-12-25T01:42:20.525Z,21.25
2022-12-25T01:44:48.582Z,17.90
2022-12-25T01:47:17.897Z,18.42
2022-12-25T01:49:47.133Z,18.95
2022-12-25T01:52:33.071Z,17.38
2022-12-25T01:55:04.145Z,19.50
2022-12-25T01:57:33.110Z,18.08
2022-12-25T02:00:01.821Z,18.60
2022-12-25T02:02:32.334Z,19.73
2022-12-25T02:05:02.210Z,21.10
2022-12-25T02:07:30.366Z,18.73
2022-12-25T02:09:57.624Z,19.70
2022-12-25T02:12:31.475Z,17.10
2022-12-25T02:15:05.972Z,20.23
2022-12-25T02:17:36.705Z,17.70
2022-12-25T02:20:04.160Z,19.48
2022-12-25T02:22:50.302Z,19.70
2022-12-25T02:25:27.138Z,19.52
2022-12-25T02:27:59.750Z,18.17
2022-12-25T02:30:27.557Z,15.98
2022-12-25T02:33:21.395Z,18.85
2022-12-25T02:35:51.696Z,18.60
2022-12-25T02:38:22.467Z,20.65
2022-12-25T02:40:56.762Z,22.55
2022-12-25T02:43:46.528Z,23.08
2022-12-25T02:46:34.032Z,17.67
2022-12-25T02:49:22.497Z,19.92
2022-12-25T02:52:12.270Z,19.85
2022-12-25T02:55:02.209Z,18.30
2022-12-25T02:57:51.951Z,19.13
2022-12-25T03:00:39.434Z,17.10
2022-12-25T03:03:26.495Z,20.10
2022-12-25T03:06:15.588Z,19.70
2022-12-25T03:08:43.975Z,21.80
2022-12-25T03:11:31.047Z,19.40
2022-12-25T03:14:22.130Z,18.73
2022-12-25T03:16:51.236Z,19.15
2022-12-25T03:19:37.514Z,20.30
2022-12-25T03:22:24.558Z,17.77
2022-12-25T03:25:10.184Z,19.70
2022-12-25T03:27:38.401Z,24.50
2022-12-25T03:30:24.677Z,19.15
2022-12-25T03:32:51.948Z,19.85
2022-12-25T03:35:31.220Z,20.73
2022-12-25T03:38:10.505Z,18.15
2022-12-25T03:40:56.384Z,18.77
2022-12-25T03:43:50.927Z,17.63
2022-12-25T03:46:41.719Z,20.55
2022-12-25T03:49:41.241Z,18.63
2022-12-25T03:52:30.414Z,18.63
2022-12-25T03:55:18.767Z,17.27
2022-12-25T03:58:04.992Z,21.38
2022-12-25T04:00:50.946Z,17.10
2022-12-25T04:03:36.656Z,19.20
2022-12-25T04:06:22.739Z,21.13
2022-12-25T04:09:08.357Z,19.20
2022-12-25T04:12:00.479Z,18.48
2022-12-25T04:14:48.154Z,21.17
2022-12-25T04:17:33.863Z,16.52
2022-12-25T04:20:19.462Z,18.13
2022-12-25T04:23:25.737Z,20.30
2022-12-25T04:26:11.639Z,19.10
2022-12-25T04:28:57.143Z,15.18
2022-12-25T04:31:43.142Z,16.15
2022-12-25T04:34:29.062Z,17.80
2022-12-25T04:36:56.285Z,20.48
2022-12-25T04:39:23.534Z,14.07
2022-12-25T04:41:50.772Z,18.92
2022-12-25T04:44:19.623Z,17.70
2022-12-25T04:46:46.910Z,16.48
2022-12-25T04:49:14.233Z,15.70
2022-12-25T04:51:41.535Z,19.33
2022-12-25T04:54:08.833Z,14.15
2022-12-25T04:56:41.648Z,16.42
2022-12-25T04:59:12.815Z,16.17
2022-12-25T05:01:40.131Z,12.32
2022-12-25T05:04:07.780Z,14.57
2022-12-25T05:06:35.080Z,16.92
2022-12-25T05:09:02.360Z,16.38
2022-12-25T05:11:29.547Z,18.52
2022-12-25T05:13:57.832Z,15.73
2022-12-25T05:16:26.409Z,15.90
2022-12-25T05:18:53.788Z,14.52
2022-12-25T05:21:21.254Z,16.38
2022-12-25T05:23:52.929Z,15.23
2022-12-25T05:26:25.404Z,16.30
2022-12-25T05:28:53.160Z,15.32
2022-12-25T05:31:20.895Z,18.45
2022-12-25T05:33:51.891Z,15.00
2022-12-25T05:36:19.540Z,14.00
2022-12-25T05:38:46.846Z,13.50
2022-12-25T05:41:14.154Z,13.73
2022-12-25T05:43:41.419Z,13.75
2022-12-25T05:46:09.579Z,14.57
2022-12-25T05:48:37.975Z,12.48
2022-12-25T05:51:06.339Z,13.23
2022-12-25T05:53:33.605Z,13.43
2022-12-25T05:56:02.911Z,19.83
2022-12-25T05:58:31.038Z,14.02
2022-12-25T06:00:58.443Z,15.55
2022-12-25T06:03:29.045Z,14.48
2022-12-25T06:05:56.409Z,12.27
2022-12-25T06:08:23.648Z,11.18
2022-12-25T06:10:50.952Z,13.57
2022-12-25T06:13:18.147Z,13.20
2022-12-25T06:15:45.432Z,13.85
2022-12-25T06:18:12.662Z,12.57
2022-12-25T06:20:42.991Z,12.98
2022-12-25T06:23:10.558Z,11.90
2022-12-25T06:25:41.210Z,12.02
2022-12-25T06:28:08.567Z,15.50
2022-12-25T06:30:35.856Z,16.35
2022-12-25T06:33:03.492Z,11.18
2022-12-25T06:35:30.782Z,10.57
2022-12-25T06:37:58.098Z,11.02
2022-12-25T06:40:25.339Z,12.10
2022-12-25T06:42:53.193Z,13.23
2022-12-25T06:45:20.588Z,14.32
2022-12-25T06:47:47.903Z,15.73
2022-12-25T06:50:16.309Z,13.05
2022-12-25T06:52:43.524Z,14.48
2022-12-25T06:55:10.843Z,11.77
2022-12-25T06:57:38.125Z,12.80
2022-12-25T07:00:05.652Z,13.48
2022-12-25T07:02:33.752Z,15.02
2022-12-25T07:05:01.694Z,17.10
2022-12-25T07:07:28.947Z,11.95
2022-12-25T07:09:56.255Z,10.77
2022-12-25T07:12:24.616Z,15.88
2022-12-25T07:14:54.396Z,13.43
2022-12-25T07:17:21.851Z,12.95
2022-12-25T07:19:49.276Z,12.43
2022-12-25T07:22:17.045Z,11.93
2022-12-25T07:24:44.273Z,13.63
2022-12-25T07:27:11.652Z,12.48
2022-12-25T07:29:38.996Z,12.00
2022-12-25T07:32:06.463Z,12.90
2022-12-25T07:34:33.829Z,14.18
2022-12-25T07:37:01.147Z,12.25
2022-12-25T07:39:28.490Z,13.65
2022-12-25T07:41:55.773Z,14.60
2022-12-25T07:44:23.066Z,13.43
2022-12-25T07:46:50.315Z,12.27
2022-12-25T07:49:17.560Z,17.25
2022-12-25T07:51:44.875Z,13.75
2022-12-25T07:54:12.215Z,15.57
2022-12-25T07:56:39.520Z,12.20
2022-12-25T07:59:06.877Z,14.73
2022-12-25T08:01:34.282Z,11.90
2022-12-25T08:04:03.174Z,11.07
2022-12-25T08:06:32.602Z,10.82
2022-12-25T08:09:03.961Z,13.07
2022-12-25T08:11:34.729Z,17.45
2022-12-25T08:14:02.269Z,10.55
2022-12-25T08:16:29.540Z,12.88
2022-12-25T08:18:56.777Z,10.40
2022-12-25T08:21:24.034Z,10.95
2022-12-25T08:23:51.337Z,12.85
2022-12-25T08:26:20.857Z,10.57
2022-12-25T08:28:48.740Z,11.05
2022-12-25T08:31:18.183Z,10.55
2022-12-25T08:33:45.718Z,9.40
2022-12-25T08:36:13.818Z,10.20
2022-12-25T08:38:41.479Z,11.07
2022-12-25T08:41:08.893Z,12.60
2022-12-25T08:43:36.209Z,9.77
2022-12-25T08:46:03.750Z,12.85
2022-12-25T08:48:31.040Z,11.57
2022-12-25T08:51:00.545Z,13.13
2022-12-25T08:53:27.881Z,11.25
2022-12-25T08:55:59.124Z,11.73
2022-12-25T08:58:26.609Z,10.73
2022-12-25T09:00:54.250Z,11.35
2022-12-25T09:03:22.188Z,12.02
2022-12-25T09:05:49.566Z,10.50
2022-12-25T09:08:16.905Z,12.27
2022-12-25T09:10:44.217Z,10.93
2022-12-25T09:13:12.854Z,9.88
2022-12-25T09:15:40.624Z,12.35
2022-12-25T09:18:07.993Z,11.23
2022-12-25T09:20:35.214Z,10.52
2022-12-25T09:23:02.500Z,12.07
2022-12-25T09:25:29.725Z,9.77
2022-12-25T09:27:57.591Z,9.80
2022-12-25T09:30:24.854Z,9.95
2022-12-25T09:32:52.226Z,9.25
2022-12-25T09:35:19.637Z,10.70
2022-12-25T09:37:49.076Z,10.77
2022-12-25T09:42:51.713Z,9.32
2022-12-25T09:45:20.550Z,9.10
2022-12-25T09:47:51.620Z,9.85
2022-12-25T09:50:25.118Z,10.68
2022-12-25T09:52:55.435Z,9.73
2022-12-25T09:55:24.554Z,10.55
2022-12-25T09:57:56.577Z,12.05
2022-12-25T10:00:25.124Z,9.93
2022-12-25T10:03:01.928Z,11.40
2022-12-25T10:06:06.497Z,10.60
2022-12-25T10:08:36.880Z,10.25
2022-12-25T10:11:22.953Z,13.18
2022-12-25T10:14:00.728Z,11.13
2022-12-25T10:16:37.783Z,10.30
2022-12-25T10:19:10.310Z,12.50
2022-12-25T10:21:37.919Z,11.13
2022-12-25T10:24:11.164Z,9.82
2022-12-25T10:26:38.441Z,9.43
2022-12-25T10:29:05.677Z,10.65
2022-12-25T10:31:35.499Z,10.68
2022-12-25T10:34:03.161Z,10.15
2022-12-25T10:36:32.179Z,12.35
2022-12-25T10:38:59.531Z,10.25
2022-12-25T10:41:42.800Z,11.25
2022-12-25T10:44:14.214Z,9.90
2022-12-25T10:46:42.288Z,11.18
2022-12-25T10:49:14.942Z,10.38
2022-12-25T10:51:42.211Z,11.48
2022-12-25T10:54:21.638Z,9.60
2022-12-25T10:56:59.282Z,12.18
2022-12-25T10:59:27.971Z,10.90
2022-12-25T11:01:56.654Z,12.02
2022-12-25T11:04:28.725Z,9.45
2022-12-25T11:07:02.147Z,12.18
2022-12-25T11:09:29.877Z,12.75
2022-12-25T11:11:57.219Z,11.07
2022-12-25T11:14:25.453Z,10.60
2022-12-25T11:16:52.681Z,10.13
2022-12-25T11:19:33.145Z,9.68
2022-12-25T11:22:01.298Z,11.35
2022-12-25T11:24:33.534Z,12.43
2022-12-25T11:27:02.237Z,14.15
2022-12-25T11:29:41.757Z,12.55
2022-12-25T11:32:18.520Z,11.23
2022-12-25T11:34:47.370Z,11.32
2022-12-25T11:37:20.087Z,13.00
2022-12-25T11:39:49.994Z,14.80
2022-12-25T11:42:30.300Z,13.38
2022-12-25T11:45:03.794Z,13.90
2022-12-25T11:47:51.483Z,15.88
2022-12-25T11:50:37.079Z,13.02
2022-12-25T11:53:06.733Z,14.05
2022-12-25T11:55:43.294Z,13.15
2022-12-25T11:58:28.798Z,14.63
2022-12-25T12:00:57.248Z,14.80
2022-12-25T12:03:37.879Z,13.65
2022-12-25T12:06:07.972Z,15.18
2022-12-25T12:08:36.187Z,17.77
2022-12-25T12:11:16.126Z,16.33
2022-12-25T12:14:02.000Z,14.93
2022-12-25T12:16:29.925Z,16.42
2022-12-25T12:18:57.696Z,14.50
2022-12-25T12:21:26.776Z,15.30
2022-12-25T12:23:57.234Z,14.63
2022-12-25T12:26:26.111Z,16.83
2022-12-25T12:28:56.027Z,15.38
2022-12-25T12:31:23.744Z,17.20
2022-12-25T12:33:56.709Z,14.23
2022-12-25T12:36:35.778Z,16.38
2022-12-25T12:39:06.094Z,15.38
2022-12-25T12:41:47.712Z,15.27
2022-12-25T12:44:17.366Z,17.70
2022-12-25T12:46:52.289Z,15.52
2022-12-25T12:49:32.322Z,16.90
2022-12-25T12:52:09.478Z,20.02
2022-12-25T12:54:53.141Z,15.10
2022-12-25T12:57:25.446Z,15.30
2022-12-25T12:59:52.713Z,14.52
2022-12-25T13:03:01.511Z,14.95
2022-12-25T13:05:50.597Z,13.63
2022-12-25T13:08:24.080Z,14.95
2022-12-25T13:10:53.091Z,15.25
2022-12-25T13:13:28.239Z,15.20
2022-12-25T13:15:57.585Z,13.30
2022-12-25T13:18:24.971Z,14.48
2022-12-25T13:20:57.085Z,14.75
2022-12-25T13:23:32.543Z,12.73
2022-12-25T13:26:01.830Z,16.33
2022-12-25T13:28:36.544Z,15.48
2022-12-25T13:31:20.677Z,20.58
2022-12-25T13:33:50.944Z,16.35
2022-12-25T13:36:18.451Z,18.90
2022-12-25T13:38:46.568Z,16.13
2022-12-25T13:41:37.507Z,14.57
2022-12-25T13:44:07.685Z,15.82
2022-12-25T13:46:35.176Z,15.93
2022-12-25T13:49:02.929Z,16.75
2022-12-25T13:51:30.225Z,15.98
2022-12-25T13:54:07.701Z,15.23
2022-12-25T13:56:36.308Z,16.42
2022-12-25T13:59:05.096Z,14.07
2022-12-25T14:01:32.572Z,17.17
2022-12-25T14:03:59.883Z,15.57
2022-12-25T14:06:31.378Z,15.18
2022-12-25T14:08:59.382Z,15.35
2022-12-25T14:11:27.808Z,15.52
2022-12-25T14:13:57.267Z,15.35
2022-12-25T14:16:25.075Z,14.73
2022-12-25T14:18:53.489Z,14.48
2022-12-25T14:21:33.155Z,14.52
2022-12-25T14:24:00.767Z,14.43
2022-12-25T14:26:34.397Z,15.45
2022-12-25T14:29:01.650Z,13.75
2022-12-25T14:31:29.389Z,13.88
2022-12-25T14:33:56.837Z,16.20
2022-12-25T14:36:24.129Z,14.88
2022-12-25T14:39:02.172Z,14.68
2022-12-25T14:41:33.953Z,15.07
2022-12-25T14:44:02.566Z,16.23
2022-12-25T14:46:31.520Z,13.10
2022-12-25T14:48:59.584Z,15.70
2022-12-25T14:51:27.025Z,12.98
2022-12-25T14:53:56.471Z,13.57
2022-12-25T14:58:58.481Z,12.55
2022-12-25T15:01:32.467Z,13.93
2022-12-25T15:04:05.926Z,14.57
2022-12-25T15:06:33.445Z,15.25
2022-12-25T15:09:01.881Z,15.90
2022-12-25T15:11:29.426Z,14.63
2022-12-25T15:13:56.816Z,13.85
2022-12-25T15:16:26.124Z,14.65
2022-12-25T15:21:28.266Z,14.73
2022-12-25T15:23:56.744Z,15.43
2022-12-25T15:26:24.500Z,15.02
2022-12-25T15:28:51.948Z,16.27
2022-12-25T15:31:27.015Z,15.00
2022-12-25T15:33:55.312Z,14.13
2022-12-25T15:36:22.938Z,15.45
2022-12-25T15:38:50.629Z,16.23
2022-12-25T15:41:38.025Z,13.98
2022-12-25T15:44:06.128Z,15.55
2022-12-25T15:46:34.393Z,14.55
2022-12-25T15:49:01.799Z,15.85
2022-12-25T15:51:29.128Z,15.48
2022-12-25T15:53:56.514Z,15.65
2022-12-25T15:56:24.025Z,16.00
2022-12-25T15:58:51.336Z,14.40
2022-12-25T16:01:20.208Z,15.98
2022-12-25T16:03:48.213Z,14.65
2022-12-25T16:06:17.239Z,15.48
2022-12-25T16:08:44.988Z,14.98
2022-12-25T16:11:12.314Z,15.02
2022-12-25T16:13:39.587Z,14.48
2022-12-25T16:16:07.305Z,14.68
2022-12-25T16:18:34.634Z,15.43
2022-12-25T16:21:01.872Z,13.00
2022-12-25T16:23:29.179Z,15.00
2022-12-25T16:25:56.486Z,13.43
2022-12-25T16:28:23.759Z,14.25
2022-12-25T16:30:51.264Z,13.98
2022-12-25T16:33:18.565Z,13.52
2022-12-25T16:35:47.142Z,14.45
2022-12-25T16:38:14.470Z,14.48
2022-12-25T16:40:41.774Z,13.63
2022-12-25T16:43:09.025Z,13.73
2022-12-25T16:45:39.959Z,13.73
2022-12-25T16:48:08.738Z,14.63
2022-12-25T16:50:38.299Z,13.98
2022-12-25T16:53:05.674Z,14.40
2022-12-25T16:55:34.112Z,13.52
2022-12-25T16:58:01.500Z,15.63
2022-12-25T17:00:28.908Z,15.18
2022-12-25T17:02:57.021Z,16.42
2022-12-25T17:05:25.246Z,14.68
2022-12-25T17:07:52.597Z,16.42
2022-12-25T17:10:21.318Z,17.45
2022-12-25T17:12:48.878Z,16.52
2022-12-25T17:15:16.147Z,16.77
2022-12-25T17:17:43.455Z,16.15
2022-12-25T17:20:10.984Z,16.17
2022-12-25T17:22:38.336Z,16.75
2022-12-25T17:25:05.982Z,16.48
2022-12-25T17:27:33.334Z,17.65
2022-12-25T17:30:00.700Z,17.73
2022-12-25T17:32:27.994Z,17.15
2022-12-25T17:34:55.347Z,16.13
2022-12-25T17:37:24.902Z,16.70
2022-12-25T17:39:52.175Z,15.45
2022-12-25T17:42:21.484Z,17.40
2022-12-25T17:44:48.863Z,17.10
2022-12-25T17:47:16.307Z,16.52
2022-12-25T17:49:43.602Z,16.02
2022-12-25T17:52:10.897Z,16.15
2022-12-25T17:54:40.508Z,15.55
2022-12-25T17:57:07.808Z,16.35
2022-12-25T17:59:35.267Z,15.25
2022-12-25T18:02:02.704Z,15.13
2022-12-25T18:04:30.181Z,15.60
2022-12-25T18:06:57.423Z,15.85
2022-12-25T18:09:24.696Z,14.65
2022-12-25T18:11:52.033Z,15.30
2022-12-25T18:14:19.397Z,14.88
2022-12-25T18:16:46.793Z,14.80
2022-12-25T18:19:18.396Z,15.63
2022-12-25T18:21:45.766Z,13.80
2022-12-25T18:24:13.114Z,15.75
2022-12-25T18:26:40.437Z,14.95
2022-12-25T18:29:07.823Z,15.57
2022-12-25T18:31:37.477Z,15.55
2022-12-25T18:34:05.215Z,15.68
2022-12-25T18:36:32.710Z,15.90
2022-12-25T18:39:00.248Z,15.60
2022-12-25T18:41:28.713Z,17.83
2022-12-25T18:43:56.326Z,17.10
2022-12-25T18:46:25.349Z,17.80
2022-12-25T18:51:20.476Z,16.48
2022-12-25T18:53:47.828Z,16.52
2022-12-25T18:56:17.223Z,15.77
2022-12-25T18:58:45.185Z,17.67
2022-12-25T19:01:12.705Z,16.65
2022-12-25T19:03:40.125Z,17.25
2022-12-25T19:06:07.528Z,17.05
2022-12-25T19:08:34.856Z,15.88
2022-12-25T19:11:06.318Z,16.15
2022-12-25T19:13:33.659Z,16.58
2022-12-25T19:16:01.284Z,16.08
2022-12-25T19:18:28.630Z,15.77
2022-12-25T19:20:55.850Z,16.67
2022-12-25T19:23:23.118Z,15.55
2022-12-25T19:25:50.573Z,17.10
2022-12-25T19:28:17.849Z,16.70
2022-12-25T19:30:45.363Z,16.35
2022-12-25T19:33:17.748Z,17.65
2022-12-25T19:35:46.847Z,17.60
2022-12-25T19:38:14.130Z,18.20
2022-12-25T19:41:00.262Z,17.55
2022-12-25T19:43:32.638Z,16.45
2022-12-25T19:46:01.473Z,16.02
2022-12-25T19:48:29.669Z,16.10
2022-12-25T19:50:57.183Z,16.38
2022-12-25T19:53:24.627Z,16.48
2022-12-25T19:55:52.989Z,16.67
2022-12-25T19:58:20.711Z,15.75
2022-12-25T20:00:58.266Z,15.57
2022-12-25T20:03:25.786Z,15.63
2022-12-25T20:05:53.205Z,15.77
2022-12-25T20:08:20.557Z,15.27
2022-12-25T20:10:47.863Z,15.98
2022-12-25T20:13:15.167Z,16.45
2022-12-25T20:15:42.386Z,16.33
2022-12-25T20:18:09.612Z,16.90
2022-12-25T20:20:36.878Z,14.68
2022-12-25T20:23:04.357Z,16.48
2022-12-25T20:25:31.623Z,16.67
2022-12-25T20:28:00.511Z,16.90
2022-12-25T20:30:27.860Z,14.98
2022-12-25T20:32:55.313Z,14.48
2022-12-25T20:35:22.564Z,16.90
2022-12-25T20:37:49.980Z,14.70
2022-12-25T20:40:17.388Z,15.10
2022-12-25T20:42:44.671Z,17.83
2022-12-25T20:45:12.601Z,14.85
2022-12-25T20:47:39.895Z,17.05
2022-12-25T20:50:07.552Z,16.92
2022-12-25T20:52:34.851Z,15.43
2022-12-25T20:55:04.706Z,16.25
2022-12-25T20:57:32.041Z,16.05
2022-12-25T20:59:59.325Z,15.73
2022-12-25T21:02:35.042Z,16.67
2022-12-25T21:05:03.705Z,15.70
2022-12-25T21:07:30.988Z,19.08
2022-12-25T21:09:59.324Z,16.27
2022-12-25T21:12:26.642Z,15.65
2022-12-25T21:14:53.921Z,16.27
2022-12-25T21:17:21.367Z,17.50
2022-12-25T21:19:48.692Z,19.13
2022-12-25T21:25:00.513Z,17.27
2022-12-25T21:27:29.428Z,18.27
2022-12-25T21:29:56.759Z,18.08
2022-12-25T21:32:42.666Z,18.98
2022-12-25T21:35:10.360Z,18.48
2022-12-25T21:37:37.773Z,21.10
2022-12-25T21:40:08.107Z,20.10
2022-12-25T21:42:38.618Z,20.08
2022-12-25T21:45:06.110Z,20.42
2022-12-25T21:47:59.867Z,20.60
2022-12-25T21:50:39.464Z,21.65
2022-12-25T21:53:07.342Z,20.58
2022-12-25T21:55:37.532Z,21.42
2022-12-25T21:58:04.802Z,21.58
2022-12-25T22:00:32.026Z,22.13
2022-12-25T22:02:59.550Z,20.30
2022-12-25T22:05:45.471Z,21.67
2022-12-25T22:08:12.762Z,22.30
2022-12-25T22:10:42.834Z,22.95
2022-12-25T22:13:28.721Z,21.98
2022-12-25T22:16:21.820Z,22.35
2022-12-25T22:19:07.648Z,24.13
2022-12-25T22:21:34.928Z,23.08
2022-12-25T22:24:02.288Z,21.85
2022-12-25T22:26:30.770Z,24.40
2022-12-25T22:28:58.010Z,23.27
2022-12-25T22:31:25.367Z,21.92
2022-12-25T22:33:52.770Z,20.02
2022-12-25T22:36:19.995Z,22.23
2022-12-25T22:38:47.247Z,20.45
2022-12-25T22:41:14.462Z,20.55
2022-12-25T22:44:15.776Z,18.80
2022-12-25T22:46:29.085Z,20.15
2022-12-25T22:48:56.361Z,18.50
2022-12-25T22:51:23.618Z,19.38
2022-12-25T22:53:50.969Z,20.55
2022-12-25T22:56:19.124Z,19.63
2022-12-25T22:58:46.353Z,18.23
2022-12-25T23:01:13.972Z,21.10
2022-12-25T23:03:41.714Z,18.35
2022-12-25T23:06:09.286Z,20.15
2022-12-25T23:08:36.561Z,16.10
2022-12-25T23:11:04.296Z,18.92
2022-12-25T23:13:50.690Z,17.58
2022-12-25T23:16:18.366Z,18.00
2022-12-25T23:19:04.235Z,14.35
2022-12-25T23:21:50.779Z,17.42
2022-12-25T23:24:36.555Z,16.55
2022-12-25T23:27:03.897Z,13.77
2022-12-25T23:29:37.029Z,16.00
2022-12-25T23:32:09.026Z,17.60
2022-12-25T23:34:37.379Z,17.70
2022-12-25T23:37:04.687Z,16.52
2022-12-25T23:39:31.972Z,15.88
2022-12-25T23:41:59.546Z,17.60
2022-12-25T23:44:28.655Z,16.02
2022-12-25T23:46:56.478Z,17.73
2022-12-25T23:49:24.413Z,18.05
2022-12-25T23:51:52.051Z,20.48
2022-12-25T23:54:22.174Z,18.88
2022-12-25T23:56:50.053Z,18.45
2022-12-25T23:59:17.882Z,21.10
